Archival Weather

Fukuoka

Fukuoka, Japan (RJFF)

Report from: Monday, August 15, 2022 2:00 PM JST
Current time: Sunday, February 25, 2024 12:20 AM JST

Current weather – Weather history – Daily summaries
Weather forecast

Present weatherThunderstorm, VCSH, WS
Temperature31.0°C (87.8°F)
Heat index40.7°C (105.2°F)
Dew point27.0°C (80.6°F)
Winds 16 kts (8.2 m/s, 18.4 mph) South-Southeast (160°)
Visibility6.2 mi. (10 km)
Clouds Ceiling: Broken clouds 0 ft. (0 m)
Few clouds 1,000 ft. (305 m)
Few clouds with cumulonimbus 3,000 ft. (914 m)
Scattered clouds 4,000 ft. (1,219 m)
Altimeter29.74 in.Hg (1007 mB)
Relative humidity79 %
Density altitude2,514 ft. (766 m)
Flight conditions Low Instrument Meteorological Conditions
Raw dataRJFF 150500Z 16016KT 9999 TS VCSH FEW010 FEW030CB SCT040 BKN/// 31/27 Q1007 WS R16 BECMG TL0630 -SHRA
An error has occurred. This application may no longer respond until reloaded. Reload 🗙